sensor_id;sensor_type;location;lat;lon;timestamp;pressure;altitude;pressure_sealevel;temperature;humidity
25560;BME280;13450;49.374;8.584;2022-10-26T00:00:44;100459.06;;;13.46;100.00
25560;BME280;13450;49.374;8.584;2022-10-26T00:03:10;100457.41;;;13.45;100.00
25560;BME280;13450;49.374;8.584;2022-10-26T00:05:35;100459.66;;;13.42;100.00
25560;BME280;13450;49.374;8.584;2022-10-26T00:08:01;100465.66;;;13.44;100.00
25560;BME280;13450;49.374;8.584;2022-10-26T00:10:27;100470.63;;;13.40;100.00
25560;BME280;13450;49.374;8.584;2022-10-26T00:12:52;100482.38;;;13.39;100.00
25560;BME280;13450;49.374;8.584;2022-10-26T00:15:20;100486.31;;;13.37;100.00
25560;BME280;13450;49.374;8.584;2022-10-26T00:17:46;100480.13;;;13.36;100.00
25560;BME280;13450;49.374;8.584;2022-10-26T00:20:31;100476.41;;;13.37;100.00
25560;BME280;13450;49.374;8.584;2022-10-26T00:25:59;100478.28;;;13.43;100.00
25560;BME280;13450;49.374;8.584;2022-10-26T00:28:25;100485.94;;;13.46;100.00
25560;BME280;13450;49.374;8.584;2022-10-26T00:34:12;100489.28;;;13.55;100.00
25560;BME280;13450;49.374;8.584;2022-10-26T00:36:56;100493.84;;;13.55;100.00
25560;BME280;13450;49.374;8.584;2022-10-26T00:39:59;100486.38;;;13.57;100.00
25560;BME280;13450;49.374;8.584;2022-10-26T00:45:48;100469.88;;;13.67;100.00
25560;BME280;13450;49.374;8.584;2022-10-26T00:48:25;100474.00;;;13.69;100.00
25560;BME280;13450;49.374;8.584;2022-10-26T00:50:53;100476.50;;;13.64;100.00
25560;BME280;13450;49.374;8.584;2022-10-26T00:59:44;100475.25;;;13.60;100.00
25560;BME280;13450;49.374;8.584;2022-10-26T01:02:11;100466.13;;;13.61;100.00
25560;BME280;13450;49.374;8.584;2022-10-26T01:04:37;100464.09;;;13.63;100.00
25560;BME280;13450;49.374;8.584;2022-10-26T01:07:04;100473.16;;;13.62;100.00
25560;BME280;13450;49.374;8.584;2022-10-26T01:09:30;100480.22;;;13.63;100.00
25560;BME280;13450;49.374;8.584;2022-10-26T01:11:56;100469.47;;;13.63;100.00
25560;BME280;13450;49.374;8.584;2022-10-26T01:14:26;100464.09;;;13.63;100.00
25560;BME280;13450;49.374;8.584;2022-10-26T01:22:09;100467.56;;;13.57;100.00
25560;BME280;13450;49.374;8.584;2022-10-26T01:25:38;100477.28;;;13.58;100.00
25560;BME280;13450;49.374;8.584;2022-10-26T01:27:42;100469.44;;;13.56;100.00
25560;BME280;13450;49.374;8.584;2022-10-26T01:35:30;100464.06;;;13.56;100.00
25560;BME280;13450;49.374;8.584;2022-10-26T01:38:07;100449.78;;;13.56;100.00
25560;BME280;13450;49.374;8.584;2022-10-26T01:40:43;100437.19;;;13.56;100.00
25560;BME280;13450;49.374;8.584;2022-10-26T01:43:11;100436.97;;;13.58;100.00
25560;BME280;13450;49.374;8.584;2022-10-26T01:45:39;100438.63;;;13.59;100.00
25560;BME280;13450;49.374;8.584;2022-10-26T01:48:08;100441.31;;;13.59;100.00
25560;BME280;13450;49.374;8.584;2022-10-26T01:50:37;100431.59;;;13.58;100.00
25560;BME280;13450;49.374;8.584;2022-10-26T01:53:04;100429.72;;;13.58;100.00
25560;BME280;13450;49.374;8.584;2022-10-26T02:01:07;100426.84;;;13.60;100.00
25560;BME280;13450;49.374;8.584;2022-10-26T02:12:02;100440.28;;;13.60;100.00
25560;BME280;13450;49.374;8.584;2022-10-26T02:17:27;100440.69;;;13.64;100.00
25560;BME280;13450;49.374;8.584;2022-10-26T02:20:00;100447.53;;;13.66;100.00
25560;BME280;13450;49.374;8.584;2022-10-26T02:22:32;100456.63;;;13.65;100.00
25560;BME280;13450;49.374;8.584;2022-10-26T02:25:04;100451.25;;;13.65;100.00
25560;BME280;13450;49.374;8.584;2022-10-26T02:27:34;100448.56;;;13.65;100.00
25560;BME280;13450;49.374;8.584;2022-10-26T02:30:03;100446.28;;;13.62;100.00
25560;BME280;13450;49.374;8.584;2022-10-26T02:32:32;100442.56;;;13.63;100.00
25560;BME280;13450;49.374;8.584;2022-10-26T02:35:00;100442.56;;;13.63;100.00
25560;BME280;13450;49.374;8.584;2022-10-26T02:37:29;100435.94;;;13.59;100.00
25560;BME280;13450;49.374;8.584;2022-10-26T02:39:56;100438.00;;;13.57;100.00
25560;BME280;13450;49.374;8.584;2022-10-26T02:42:24;100447.09;;;13.56;100.00
25560;BME280;13450;49.374;8.584;2022-10-26T02:44:57;100456.22;;;13.55;100.00
25560;BME280;13450;49.374;8.584;2022-10-26T02:47:25;100452.88;;;13.53;100.00
25560;BME280;13450;49.374;8.584;2022-10-26T02:49:51;100447.94;;;13.50;100.00
25560;BME280;13450;49.374;8.584;2022-10-26T02:52:27;100461.94;;;13.45;100.00
25560;BME280;13450;49.374;8.584;2022-10-26T02:55:10;100458.84;;;13.41;100.00
25560;BME280;13450;49.374;8.584;2022-10-26T02:57:40;100453.66;;;13.40;100.00
25560;BME280;13450;49.374;8.584;2022-10-26T03:00:11;100447.44;;;13.39;100.00
25560;BME280;13450;49.374;8.584;2022-10-26T03:02:37;100444.16;;;13.37;100.00
25560;BME280;13450;49.374;8.584;2022-10-26T03:05:19;100431.94;;;13.34;100.00
25560;BME280;13450;49.374;8.584;2022-10-26T03:07:47;100441.66;;;13.36;100.00
25560;BME280;13450;49.374;8.584;2022-10-26T03:10:13;100456.94;;;13.35;100.00
25560;BME280;13450;49.374;8.584;2022-10-26T03:12:38;100466.03;;;13.34;100.00
25560;BME280;13450;49.374;8.584;2022-10-26T03:15:04;100487.53;;;13.34;100.00
25560;BME280;13450;49.374;8.584;2022-10-26T03:17:30;100492.91;;;13.34;100.00
25560;BME280;13450;49.374;8.584;2022-10-26T03:19:55;100491.06;;;13.34;100.00
25560;BME280;13450;49.374;8.584;2022-10-26T03:22:21;100492.13;;;13.33;100.00
25560;BME280;13450;49.374;8.584;2022-10-26T03:24:46;100487.53;;;13.34;100.00
25560;BME280;13450;49.374;8.584;2022-10-26T03:27:13;100482.19;;;13.34;100.00
25560;BME280;13450;49.374;8.584;2022-10-26T03:29:38;100477.84;;;13.33;100.00
25560;BME280;13450;49.374;8.584;2022-10-26T03:32:08;100476.78;;;13.34;100.00
25560;BME280;13450;49.374;8.584;2022-10-26T03:34:34;100483.81;;;13.35;100.00
25560;BME280;13450;49.374;8.584;2022-10-26T03:36:59;100475.56;;;13.37;100.00
25560;BME280;13450;49.374;8.584;2022-10-26T03:39:24;100464.63;;;13.38;100.00
25560;BME280;13450;49.374;8.584;2022-10-26T03:41:49;100450.97;;;13.40;100.00
25560;BME280;13450;49.374;8.584;2022-10-26T03:44:15;100450.78;;;13.41;100.00
25560;BME280;13450;49.374;8.584;2022-10-26T03:46:40;100447.88;;;13.43;100.00
25560;BME280;13450;49.374;8.584;2022-10-26T03:49:06;100443.31;;;13.43;100.00
25560;BME280;13450;49.374;8.584;2022-10-26T03:51:31;100450.34;;;13.44;100.00
25560;BME280;13450;49.374;8.584;2022-10-26T03:53:56;100452.22;;;13.44;100.00
25560;BME280;13450;49.374;8.584;2022-10-26T03:56:22;100455.13;;;13.42;100.00
25560;BME280;13450;49.374;8.584;2022-10-26T03:58:49;100456.16;;;13.41;100.00
25560;BME280;13450;49.374;8.584;2022-10-26T04:01:15;100462.34;;;13.42;100.00
25560;BME280;13450;49.374;8.584;2022-10-26T04:03:41;100462.34;;;13.42;100.00
25560;BME280;13450;49.374;8.584;2022-10-26T04:06:06;100459.66;;;13.42;100.00
25560;BME280;13450;49.374;8.584;2022-10-26T04:08:31;100460.50;;;13.42;100.00
25560;BME280;13450;49.374;8.584;2022-10-26T04:10:57;100450.78;;;13.41;100.00
25560;BME280;13450;49.374;8.584;2022-10-26T04:13:23;100456.16;;;13.41;100.00
25560;BME280;13450;49.374;8.584;2022-10-26T04:15:49;100452.22;;;13.44;100.00
25560;BME280;13450;49.374;8.584;2022-10-26T04:18:14;100460.69;;;13.41;100.00
25560;BME280;13450;49.374;8.584;2022-10-26T04:20:40;100468.34;;;13.37;100.00
25560;BME280;13450;49.374;8.584;2022-10-26T04:23:09;100456.94;;;13.35;100.00
25560;BME280;13450;49.374;8.584;2022-10-26T04:25:35;100458.19;;;13.32;100.00
25560;BME280;13450;49.374;8.584;2022-10-26T04:28:01;100462.75;;;13.32;100.00
25560;BME280;13450;49.374;8.584;2022-10-26T04:30:27;100464.78;;;13.30;100.00
25560;BME280;13450;49.374;8.584;2022-10-26T04:32:53;100469.16;;;13.31;100.00
25560;BME280;13450;49.374;8.584;2022-10-26T04:35:18;100453.84;;;13.31;100.00
25560;BME280;13450;49.374;8.584;2022-10-26T04:37:45;100452.00;;;13.32;100.00
25560;BME280;13450;49.374;8.584;2022-10-26T04:40:14;100448.28;;;13.33;100.00
25560;BME280;13450;49.374;8.584;2022-10-26T04:42:44;100441.25;;;13.32;100.00
25560;BME280;13450;49.374;8.584;2022-10-26T04:45:13;100452.00;;;13.32;100.00
25560;BME280;13450;49.374;8.584;2022-10-26T04:47:39;100440.59;;;13.30;100.00
25560;BME280;13450;49.374;8.584;2022-10-26T04:50:06;100448.66;;;13.30;100.00
25560;BME280;13450;49.374;8.584;2022-10-26T04:52:33;100463.16;;;13.29;100.00
25560;BME280;13450;49.374;8.584;2022-10-26T04:54:58;100454.03;;;13.30;100.00
25560;BME280;13450;49.374;8.584;2022-10-26T04:57:23;100452.00;;;13.32;100.00
25560;BME280;13450;49.374;8.584;2022-10-26T04:59:48;100455.72;;;13.31;100.00
25560;BME280;13450;49.374;8.584;2022-10-26T05:02:14;100443.31;;;13.30;100.00
25560;BME280;13450;49.374;8.584;2022-10-26T05:04:39;100449.31;;;13.32;100.00
25560;BME280;13450;49.374;8.584;2022-10-26T05:07:07;100450.97;;;13.33;100.00
25560;BME280;13450;49.374;8.584;2022-10-26T05:09:35;100442.91;;;13.33;100.00
25560;BME280;13450;49.374;8.584;2022-10-26T05:12:00;100437.53;;;13.33;100.00
25560;BME280;13450;49.374;8.584;2022-10-26T05:14:25;100442.91;;;13.33;100.00
25560;BME280;13450;49.374;8.584;2022-10-26T05:16:50;100450.75;;;13.34;100.00
25560;BME280;13450;49.374;8.584;2022-10-26T05:19:16;100451.38;;;13.37;100.00
25560;BME280;13450;49.374;8.584;2022-10-26T05:21:41;100461.31;;;13.36;100.00
25560;BME280;13450;49.374;8.584;2022-10-26T05:24:08;100463.16;;;13.36;100.00
25560;BME280;13450;49.374;8.584;2022-10-26T05:26:35;100483.44;;;13.38;100.00
25560;BME280;13450;49.374;8.584;2022-10-26T05:29:01;100483.44;;;13.38;100.00
25560;BME280;13450;49.374;8.584;2022-10-26T05:31:26;100489.66;;;13.39;100.00
25560;BME280;13450;49.374;8.584;2022-10-26T05:33:51;100491.50;;;13.38;100.00
25560;BME280;13450;49.374;8.584;2022-10-26T05:36:17;100493.56;;;13.36;100.00
25560;BME280;13450;49.374;8.584;2022-10-26T05:38:43;100502.44;;;13.37;100.00
25560;BME280;13450;49.374;8.584;2022-10-26T05:41:09;100498.09;;;13.36;100.00
25560;BME280;13450;49.374;8.584;2022-10-26T05:43:34;100504.31;;;13.36;100.00
25560;BME280;13450;49.374;8.584;2022-10-26T05:45:59;100503.69;;;13.34;100.00
25560;BME280;13450;49.374;8.584;2022-10-26T05:48:27;100502.88;;;13.33;100.00
25560;BME280;13450;49.374;8.584;2022-10-26T05:50:52;100498.72;;;13.31;100.00
25560;BME280;13450;49.374;8.584;2022-10-26T05:53:20;100494.34;;;13.30;100.00
25560;BME280;13450;49.374;8.584;2022-10-26T05:55:45;100514.84;;;13.31;100.00
25560;BME280;13450;49.374;8.584;2022-10-26T05:58:12;100511.13;;;13.32;100.00
25560;BME280;13450;49.374;8.584;2022-10-26T06:03:41;100520.22;;;13.31;100.00
25560;BME280;13450;49.374;8.584;2022-10-26T06:06:10;100513.16;;;13.30;100.00
25560;BME280;13450;49.374;8.584;2022-10-26T06:08:37;100523.91;;;13.30;100.00
25560;BME280;13450;49.374;8.584;2022-10-26T06:11:07;100524.94;;;13.29;100.00
25560;BME280;13450;49.374;8.584;2022-10-26T06:13:33;100529.28;;;13.30;100.00
25560;BME280;13450;49.374;8.584;2022-10-26T06:16:08;100547.91;;;13.31;100.00
25560;BME280;13450;49.374;8.584;2022-10-26T06:24:11;100557.00;;;13.30;100.00
25560;BME280;13450;49.374;8.584;2022-10-26T06:29:35;100565.25;;;13.29;100.00
25560;BME280;13450;49.374;8.584;2022-10-26T06:32:07;100568.34;;;13.26;100.00
25560;BME280;13450;49.374;8.584;2022-10-26T06:34:38;100568.34;;;13.26;100.00
25560;BME280;13450;49.374;8.584;2022-10-26T06:37:10;100568.34;;;13.26;100.00
25560;BME280;13450;49.374;8.584;2022-10-26T06:39:38;100567.72;;;13.24;100.00
25560;BME280;13450;49.374;8.584;2022-10-26T06:42:06;100563.38;;;13.23;100.00
25560;BME280;13450;49.374;8.584;2022-10-26T06:44:33;100566.06;;;13.23;100.00
25560;BME280;13450;49.374;8.584;2022-10-26T06:47:05;100568.75;;;13.23;100.00
25560;BME280;13450;49.374;8.584;2022-10-26T06:52:34;100578.47;;;13.24;100.00
25560;BME280;13450;49.374;8.584;2022-10-26T06:55:04;100569.38;;;13.25;100.00
25560;BME280;13450;49.374;8.584;2022-10-26T06:57:35;100578.88;;;13.27;100.00
25560;BME280;13450;49.374;8.584;2022-10-26T07:00:05;100584.25;;;13.27;100.00
25560;BME280;13450;49.374;8.584;2022-10-26T07:02:33;100587.78;;;13.28;100.00
25560;BME280;13450;49.374;8.584;2022-10-26T07:04:59;100593.38;;;13.26;100.00
25560;BME280;13450;49.374;8.584;2022-10-26T07:07:26;100607.63;;;13.27;100.00
25560;BME280;13450;49.374;8.584;2022-10-26T07:09:55;100609.69;;;13.25;100.00
25560;BME280;13450;49.374;8.584;2022-10-26T07:12:23;100612.19;;;13.26;100.00
25560;BME280;13450;49.374;8.584;2022-10-26T07:14:48;100619.38;;;13.26;100.00
25560;BME280;13450;49.374;8.584;2022-10-26T07:17:14;100619.38;;;13.26;100.00
25560;BME280;13450;49.374;8.584;2022-10-26T07:19:41;100625.41;;;13.28;100.00
25560;BME280;13450;49.374;8.584;2022-10-26T07:22:08;100626.03;;;13.30;100.00
25560;BME280;13450;49.374;8.584;2022-10-26T07:24:34;100630.19;;;13.32;100.00
25560;BME280;13450;49.374;8.584;2022-10-26T07:26:59;100635.16;;;13.36;100.00
25560;BME280;13450;49.374;8.584;2022-10-26T07:29:27;100648.03;;;13.40;100.00
25560;BME280;13450;49.374;8.584;2022-10-26T07:31:53;100652.78;;;13.45;100.00
25560;BME280;13450;49.374;8.584;2022-10-26T07:34:20;100647.22;;;13.46;100.00
25560;BME280;13450;49.374;8.584;2022-10-26T07:36:46;100649.75;;;13.48;100.00
25560;BME280;13450;49.374;8.584;2022-10-26T07:39:11;100641.84;;;13.46;100.00
25560;BME280;13450;49.374;8.584;2022-10-26T07:41:36;100640.19;;;13.45;100.00
25560;BME280;13450;49.374;8.584;2022-10-26T07:44:02;100649.06;;;13.46;100.00
25560;BME280;13450;49.374;8.584;2022-10-26T07:46:27;100649.25;;;13.44;100.00
25560;BME280;13450;49.374;8.584;2022-10-26T07:48:53;100648.06;;;13.47;100.00
25560;BME280;13450;49.374;8.584;2022-10-26T07:51:18;100651.81;;;13.53;100.00
25560;BME280;13450;49.374;8.584;2022-10-26T07:53:44;100649.34;;;13.58;100.00
25560;BME280;13450;49.374;8.584;2022-10-26T07:56:12;100642.97;;;13.59;100.00
25560;BME280;13450;49.374;8.584;2022-10-26T07:58:38;100644.63;;;13.60;100.00
25560;BME280;13450;49.374;8.584;2022-10-26T08:01:08;100650.19;;;13.58;100.00
25560;BME280;13450;49.374;8.584;2022-10-26T08:03:37;100653.53;;;13.60;100.00
25560;BME280;13450;49.374;8.584;2022-10-26T08:06:02;100659.31;;;13.64;100.00
25560;BME280;13450;49.374;8.584;2022-10-26T08:08:31;100658.94;;;13.67;100.00
25560;BME280;13450;49.374;8.584;2022-10-26T08:10:58;100665.16;;;13.75;100.00
25560;BME280;13450;49.374;8.584;2022-10-26T08:13:24;100668.06;;;13.80;100.00
25560;BME280;13450;49.374;8.584;2022-10-26T08:15:49;100654.84;;;13.85;100.00
25560;BME280;13450;49.374;8.584;2022-10-26T08:18:15;100663.97;;;13.91;100.00
25560;BME280;13450;49.374;8.584;2022-10-26T08:20:41;100659.44;;;13.98;100.00
25560;BME280;13450;49.374;8.584;2022-10-26T08:23:06;100671.88;;;14.06;100.00
25560;BME280;13450;49.374;8.584;2022-10-26T08:25:32;100671.06;;;14.12;100.00
25560;BME280;13450;49.374;8.584;2022-10-26T08:28:02;100675.84;;;14.23;100.00
25560;BME280;13450;49.374;8.584;2022-10-26T08:30:32;100678.97;;;14.34;100.00
25560;BME280;13450;49.374;8.584;2022-10-26T08:33:03;100679.19;;;14.46;100.00
25560;BME280;13450;49.374;8.584;2022-10-26T08:35:29;100677.16;;;14.55;100.00
25560;BME280;13450;49.374;8.584;2022-10-26T08:37:54;100674.25;;;14.63;100.00
25560;BME280;13450;49.374;8.584;2022-10-26T08:40:24;100685.25;;;14.68;100.00
25560;BME280;13450;49.374;8.584;2022-10-26T08:42:57;100678.19;;;14.74;100.00
25560;BME280;13450;49.374;8.584;2022-10-26T08:45:34;100686.09;;;14.75;100.00
25560;BME280;13450;49.374;8.584;2022-10-26T08:48:08;100681.94;;;14.80;100.00
25560;BME280;13450;49.374;8.584;2022-10-26T08:50:41;100691.06;;;14.85;100.00
25560;BME280;13450;49.374;8.584;2022-10-26T08:55:56;100694.41;;;14.94;100.00
25560;BME280;13450;49.374;8.584;2022-10-26T08:58:31;100696.25;;;15.00;100.00
25560;BME280;13450;49.374;8.584;2022-10-26T09:00:58;100697.69;;;15.10;100.00
25560;BME280;13450;49.374;8.584;2022-10-26T09:03:24;100699.75;;;15.21;100.00
25560;BME280;13450;49.374;8.584;2022-10-26T09:05:53;100702.84;;;15.32;100.00
25560;BME280;13450;49.374;8.584;2022-10-26T09:16:44;100701.81;;;15.99;100.00
25560;BME280;13450;49.374;8.584;2022-10-26T09:19:45;100707.91;;;16.26;100.00
25560;BME280;13450;49.374;8.584;2022-10-26T09:24:56;100717.88;;;16.58;100.00
25560;BME280;13450;49.374;8.584;2022-10-26T09:27:27;100717.03;;;16.64;100.00
25560;BME280;13450;49.374;8.584;2022-10-26T09:29:55;100717.94;;;16.83;100.00
25560;BME280;13450;49.374;8.584;2022-10-26T09:32:28;100722.50;;;17.08;100.00
25560;BME280;13450;49.374;8.584;2022-10-26T09:35:05;100725.03;;;17.29;100.00
25560;BME280;13450;49.374;8.584;2022-10-26T09:37:41;100725.94;;;17.41;100.00
25560;BME280;13450;49.374;8.584;2022-10-26T09:40:24;100722.56;;;17.46;100.00
25560;BME280;13450;49.374;8.584;2022-10-26T09:43:09;100729.03;;;17.63;100.00
25560;BME280;13450;49.374;8.584;2022-10-26T09:45:48;100722.34;;;17.85;100.00
25560;BME280;13450;49.374;8.584;2022-10-26T09:48:35;100716.25;;;17.89;100.00
25560;BME280;13450;49.374;8.584;2022-10-26T09:51:03;100716.25;;;18.08;100.00
25560;BME280;13450;49.374;8.584;2022-10-26T09:53:28;100728.41;;;18.48;100.00
25560;BME280;13450;49.374;8.584;2022-10-26T09:56:03;100728.81;;;18.76;100.00
25560;BME280;13450;49.374;8.584;2022-10-26T09:58:36;100729.66;;;19.00;100.00
25560;BME280;13450;49.374;8.584;2022-10-26T10:01:22;100733.59;;;19.28;100.00
25560;BME280;13450;49.374;8.584;2022-10-26T10:06:42;100744.81;;;20.38;100.00
25560;BME280;13450;49.374;8.584;2022-10-26T10:09:09;100744.53;;;21.20;100.00
25560;BME280;13450;49.374;8.584;2022-10-26T10:11:38;100756.88;;;21.45;100.00
25560;BME280;13450;49.374;8.584;2022-10-26T10:14:13;100765.06;;;21.67;100.00
25560;BME280;13450;49.374;8.584;2022-10-26T10:16:39;100758.06;;;22.44;100.00
25560;BME280;13450;49.374;8.584;2022-10-26T10:19:20;100752.06;;;23.02;100.00
25560;BME280;13450;49.374;8.584;2022-10-26T10:21:48;100756.34;;;22.93;100.00
25560;BME280;13450;49.374;8.584;2022-10-26T10:29:33;100759.03;;;21.82;100.00
25560;BME280;13450;49.374;8.584;2022-10-26T10:32:03;100769.59;;;22.01;100.00
25560;BME280;13450;49.374;8.584;2022-10-26T10:34:32;100777.75;;;22.01;100.00
25560;BME280;13450;49.374;8.584;2022-10-26T10:36:59;100776.88;;;21.73;100.00
25560;BME280;13450;49.374;8.584;2022-10-26T10:42:00;100777.84;;;22.56;100.00
25560;BME280;13450;49.374;8.584;2022-10-26T10:44:29;100784.16;;;22.34;100.00
25560;BME280;13450;49.374;8.584;2022-10-26T10:47:05;100783.06;;;22.36;100.00
25560;BME280;13450;49.374;8.584;2022-10-26T10:49:31;100793.59;;;22.27;100.00
25560;BME280;13450;49.374;8.584;2022-10-26T10:51:59;100795.00;;;22.29;100.00
25560;BME280;13450;49.374;8.584;2022-10-26T10:54:37;100792.41;;;22.45;100.00
25560;BME280;13450;49.374;8.584;2022-10-26T10:57:38;100791.19;;;22.30;100.00
25560;BME280;13450;49.374;8.584;2022-10-26T11:00:08;100802.09;;;21.86;100.00
25560;BME280;13450;49.374;8.584;2022-10-26T11:08:22;100797.03;;;21.38;100.00
25560;BME280;13450;49.374;8.584;2022-10-26T11:10:59;100796.25;;;21.60;100.00
25560;BME280;13450;49.374;8.584;2022-10-26T11:13:42;100808.78;;;22.45;100.00
25560;BME280;13450;49.374;8.584;2022-10-26T11:16:15;100808.25;;;23.03;100.00
25560;BME280;13450;49.374;8.584;2022-10-26T11:18:46;100808.78;;;23.00;100.00
25560;BME280;13450;49.374;8.584;2022-10-26T11:21:27;100813.72;;;22.48;100.00
25560;BME280;13450;49.374;8.584;2022-10-26T11:24:03;100819.63;;;21.55;100.00
25560;BME280;13450;49.374;8.584;2022-10-26T11:32:02;100814.94;;;20.70;100.00
25560;BME280;13450;49.374;8.584;2022-10-26T11:34:55;100814.94;;;20.53;100.00
25560;BME280;13450;49.374;8.584;2022-10-26T11:40:13;100809.06;;;20.03;100.00
25560;BME280;13450;49.374;8.584;2022-10-26T11:42:43;100814.41;;;19.74;100.00
25560;BME280;13450;49.374;8.584;2022-10-26T11:45:16;100821.59;;;19.80;100.00
25560;BME280;13450;49.374;8.584;2022-10-26T11:47:59;100825.84;;;19.76;100.00
25560;BME280;13450;49.374;8.584;2022-10-26T11:50:32;100826.91;;;19.51;100.00
25560;BME280;13450;49.374;8.584;2022-10-26T11:53:19;100827.28;;;19.55;100.00
25560;BME280;13450;49.374;8.584;2022-10-26T11:55:48;100824.66;;;19.60;100.00
25560;BME280;13450;49.374;8.584;2022-10-26T11:58:15;100830.56;;;19.57;100.00
25560;BME280;13450;49.374;8.584;2022-10-26T12:00:52;100829.63;;;19.63;100.00
25560;BME280;13450;49.374;8.584;2022-10-26T12:03:22;100827.97;;;19.86;100.00
25560;BME280;13450;49.374;8.584;2022-10-26T12:05:51;100834.34;;;20.04;100.00
25560;BME280;13450;49.374;8.584;2022-10-26T12:08:26;100828.28;;;20.13;100.00
25560;BME280;13450;49.374;8.584;2022-10-26T12:11:08;100826.28;;;20.09;100.00
25560;BME280;13450;49.374;8.584;2022-10-26T12:16:26;100831.34;;;20.05;100.00
25560;BME280;13450;49.374;8.584;2022-10-26T12:19:02;100829.63;;;20.40;100.00
25560;BME280;13450;49.374;8.584;2022-10-26T12:21:30;100836.84;;;20.63;100.00
25560;BME280;13450;49.374;8.584;2022-10-26T12:24:01;100829.19;;;20.89;100.00
25560;BME280;13450;49.374;8.584;2022-10-26T12:34:02;100823.84;;;22.75;100.00
25560;BME280;13450;49.374;8.584;2022-10-26T12:39:36;100839.69;;;28.68;65.60
25560;BME280;13450;49.374;8.584;2022-10-26T12:47:03;100855.84;;;26.94;68.01
25560;BME280;13450;49.374;8.584;2022-10-26T13:01:18;100860.34;;;24.10;88.76
25560;BME280;13450;49.374;8.584;2022-10-26T13:04:03;100857.03;;;24.13;91.95
25560;BME280;13450;49.374;8.584;2022-10-26T13:09:30;100849.44;;;23.72;93.44
25560;BME280;13450;49.374;8.584;2022-10-26T13:12:00;100860.13;;;23.74;97.34
25560;BME280;13450;49.374;8.584;2022-10-26T13:14:52;100848.88;;;23.70;96.18
25560;BME280;13450;49.374;8.584;2022-10-26T13:17:25;100853.50;;;23.64;96.41
25560;BME280;13450;49.374;8.584;2022-10-26T13:19:55;100855.03;;;23.50;97.33
25560;BME280;13450;49.374;8.584;2022-10-26T13:22:21;100857.50;;;24.00;94.14
25560;BME280;13450;49.374;8.584;2022-10-26T13:24:57;100857.28;;;25.17;87.10
25560;BME280;13450;49.374;8.584;2022-10-26T13:32:38;100861.00;;;32.37;49.42
25560;BME280;13450;49.374;8.584;2022-10-26T13:35:10;100872.66;;;33.40;44.96
25560;BME280;13450;49.374;8.584;2022-10-26T13:37:40;100853.38;;;33.52;43.07
25560;BME280;13450;49.374;8.584;2022-10-26T13:40:09;100859.34;;;34.02;42.78
25560;BME280;13450;49.374;8.584;2022-10-26T13:42:43;100854.91;;;34.10;42.37
25560;BME280;13450;49.374;8.584;2022-10-26T13:45:14;100855.81;;;32.62;42.51
25560;BME280;13450;49.374;8.584;2022-10-26T13:47:51;100853.31;;;30.66;47.08
25560;BME280;13450;49.374;8.584;2022-10-26T13:50:23;100855.78;;;29.14;53.23
25560;BME280;13450;49.374;8.584;2022-10-26T13:52:54;100851.09;;;28.18;62.43
25560;BME280;13450;49.374;8.584;2022-10-26T13:55:26;100860.78;;;27.32;60.47
25560;BME280;13450;49.374;8.584;2022-10-26T13:58:17;100863.19;;;26.63;64.97
25560;BME280;13450;49.374;8.584;2022-10-26T14:03:31;100863.91;;;26.80;66.15
25560;BME280;13450;49.374;8.584;2022-10-26T14:05:59;100877.03;;;26.43;68.95
25560;BME280;13450;49.374;8.584;2022-10-26T14:08:24;100873.16;;;25.62;68.29
25560;BME280;13450;49.374;8.584;2022-10-26T14:10:55;100867.66;;;24.84;74.09
25560;BME280;13450;49.374;8.584;2022-10-26T14:13:23;100871.16;;;24.53;76.66
25560;BME280;13450;49.374;8.584;2022-10-26T14:15:55;100871.72;;;24.02;82.41
25560;BME280;13450;49.374;8.584;2022-10-26T14:18:29;100873.16;;;23.67;85.64
25560;BME280;13450;49.374;8.584;2022-10-26T14:20:57;100871.69;;;23.16;93.34
25560;BME280;13450;49.374;8.584;2022-10-26T14:23:24;100872.41;;;22.78;92.51
25560;BME280;13450;49.374;8.584;2022-10-26T14:25:53;100886.19;;;22.44;99.08
25560;BME280;13450;49.374;8.584;2022-10-26T14:28:26;100889.25;;;22.25;100.00
25560;BME280;13450;49.374;8.584;2022-10-26T14:30:52;100884.09;;;22.06;100.00
25560;BME280;13450;49.374;8.584;2022-10-26T14:33:19;100886.09;;;21.94;100.00
25560;BME280;13450;49.374;8.584;2022-10-26T14:35:47;100886.59;;;21.91;100.00
25560;BME280;13450;49.374;8.584;2022-10-26T14:38:19;100891.38;;;21.84;100.00
25560;BME280;13450;49.374;8.584;2022-10-26T14:40:46;100887.09;;;21.88;100.00
25560;BME280;13450;49.374;8.584;2022-10-26T14:43:18;100885.06;;;21.78;100.00
25560;BME280;13450;49.374;8.584;2022-10-26T14:45:49;100890.66;;;21.71;100.00
25560;BME280;13450;49.374;8.584;2022-10-26T14:48:20;100892.38;;;21.60;100.00
25560;BME280;13450;49.374;8.584;2022-10-26T14:51:08;100896.00;;;21.32;100.00
25560;BME280;13450;49.374;8.584;2022-10-26T14:53:37;100894.38;;;21.30;100.00
25560;BME280;13450;49.374;8.584;2022-10-26T14:56:04;100894.28;;;21.25;100.00
25560;BME280;13450;49.374;8.584;2022-10-26T14:58:31;100887.59;;;21.16;100.00
25560;BME280;13450;49.374;8.584;2022-10-26T15:01:33;100891.75;;;21.07;100.00
25560;BME280;13450;49.374;8.584;2022-10-26T15:04:05;100896.63;;;21.04;100.00
25560;BME280;13450;49.374;8.584;2022-10-26T15:06:40;100899.38;;;21.04;100.00
25560;BME280;13450;49.374;8.584;2022-10-26T15:09:27;100900.34;;;20.98;100.00
25560;BME280;13450;49.374;8.584;2022-10-26T15:11:53;100904.53;;;20.89;100.00